createdAt,value
2023-05-11T00:01:04.350Z,42.09
2023-05-11T00:03:33.217Z,41.69
2023-05-11T00:06:01.329Z,41.64
2023-05-11T00:08:29.173Z,41.70
2023-05-11T00:10:57.060Z,41.49
2023-05-11T00:13:24.807Z,42.33
2023-05-11T00:15:52.688Z,42.19
2023-05-11T00:18:20.758Z,41.74
2023-05-11T00:20:48.543Z,41.78
2023-05-11T00:23:16.427Z,42.31
2023-05-11T00:25:44.287Z,42.00
2023-05-11T00:28:12.159Z,41.71
2023-05-11T00:30:43.104Z,42.48
2023-05-11T00:33:11.002Z,43.33
2023-05-11T00:35:38.796Z,43.77
2023-05-11T00:38:06.751Z,43.62
2023-05-11T00:40:34.904Z,42.44
2023-05-11T00:43:02.621Z,43.43
2023-05-11T00:45:30.484Z,43.32
2023-05-11T00:47:58.591Z,43.19
2023-05-11T00:50:26.901Z,42.87
2023-05-11T00:52:56.211Z,43.54
2023-05-11T00:55:24.782Z,43.31
2023-05-11T00:57:52.678Z,43.78
2023-05-11T01:00:20.784Z,43.51
2023-05-11T01:02:49.127Z,43.77
2023-05-11T01:05:17.131Z,43.38
2023-05-11T01:08:05.938Z,43.89
2023-05-11T01:10:50.787Z,43.84
2023-05-11T01:13:35.278Z,45.15
2023-05-11T01:16:09.571Z,44.26
2023-05-11T01:19:11.803Z,43.78
2023-05-11T01:21:40.225Z,43.78
2023-05-11T01:24:22.753Z,43.65
2023-05-11T01:27:24.937Z,43.86
2023-05-11T01:30:33.264Z,43.20
2023-05-11T01:33:07.349Z,44.02
2023-05-11T01:35:39.232Z,43.75
2023-05-11T01:38:11.924Z,43.60
2023-05-11T01:40:42.011Z,43.02
2023-05-11T01:43:22.011Z,43.79
2023-05-11T01:45:51.480Z,43.63
2023-05-11T01:48:23.350Z,43.02
2023-05-11T01:50:51.925Z,43.51
2023-05-11T01:53:20.736Z,44.49
2023-05-11T01:55:49.963Z,43.38
2023-05-11T01:58:18.744Z,44.21
2023-05-11T02:00:46.646Z,44.26
2023-05-11T02:03:15.065Z,44.40
2023-05-11T02:05:43.440Z,44.26
2023-05-11T02:08:12.204Z,44.22
2023-05-11T02:10:40.414Z,44.87
2023-05-11T02:13:10.095Z,44.71
2023-05-11T02:15:41.737Z,44.07
2023-05-11T02:18:13.648Z,45.02
2023-05-11T02:20:45.997Z,44.62
2023-05-11T02:23:14.616Z,44.56
2023-05-11T02:25:43.311Z,44.75
2023-05-11T02:28:11.130Z,44.42
2023-05-11T02:30:46.882Z,44.21
2023-05-11T02:33:22.461Z,44.50
2023-05-11T02:35:52.446Z,44.31
2023-05-11T02:38:20.585Z,44.38
2023-05-11T02:40:51.416Z,44.36
2023-05-11T02:43:25.603Z,44.51
2023-05-11T02:46:08.229Z,44.11
2023-05-11T02:48:45.210Z,43.76
2023-05-11T02:51:14.723Z,43.53
2023-05-11T02:53:49.391Z,44.08
2023-05-11T02:56:17.184Z,43.60
2023-05-11T02:58:45.213Z,44.04
2023-05-11T03:01:21.130Z,44.65
2023-05-11T03:03:49.331Z,44.14
2023-05-11T03:06:17.346Z,44.52
2023-05-11T03:08:46.086Z,43.95
2023-05-11T03:11:15.629Z,44.55
2023-05-11T03:13:43.539Z,44.54
2023-05-11T03:16:13.218Z,45.30
2023-05-11T03:18:41.460Z,44.57
2023-05-11T03:21:09.366Z,45.29
2023-05-11T03:23:37.836Z,45.76
2023-05-11T03:26:07.138Z,46.37
2023-05-11T03:28:37.488Z,45.52
2023-05-11T03:31:08.639Z,45.21
2023-05-11T03:33:39.616Z,45.25
2023-05-11T03:36:11.378Z,45.39
2023-05-11T03:38:39.585Z,44.54
2023-05-11T03:41:11.100Z,45.22
2023-05-11T03:43:39.344Z,45.47
2023-05-11T03:46:07.717Z,45.30
2023-05-11T03:48:35.678Z,45.00
2023-05-11T03:51:04.720Z,45.46
2023-05-11T03:53:32.956Z,45.30
2023-05-11T03:56:00.851Z,45.22
2023-05-11T03:58:28.965Z,45.12
2023-05-11T04:00:56.835Z,45.02
2023-05-11T04:03:26.038Z,45.36
2023-05-11T04:05:56.064Z,45.34
2023-05-11T04:08:23.921Z,45.33
2023-05-11T04:10:51.819Z,45.37
2023-05-11T04:13:19.642Z,45.18
2023-05-11T04:15:47.557Z,44.76
2023-05-11T04:18:15.487Z,43.66
2023-05-11T04:20:43.381Z,44.37
2023-05-11T04:23:11.169Z,44.39
2023-05-11T04:25:39.038Z,44.20
2023-05-11T04:28:06.804Z,44.60
2023-05-11T04:30:34.604Z,43.91
2023-05-11T04:33:03.606Z,43.63
2023-05-11T04:35:31.701Z,43.24
2023-05-11T04:38:06.324Z,43.83
2023-05-11T04:40:36.334Z,43.96
2023-05-11T04:43:04.387Z,43.16
2023-05-11T04:45:32.254Z,43.88
2023-05-11T04:48:00.295Z,43.70
2023-05-11T04:50:28.161Z,43.41
2023-05-11T04:52:56.089Z,43.92
2023-05-11T04:55:24.024Z,43.94
2023-05-11T04:57:53.874Z,43.74
2023-05-11T05:00:22.161Z,43.12
2023-05-11T05:02:51.326Z,42.05
2023-05-11T05:05:19.336Z,42.62
2023-05-11T05:07:47.321Z,42.43
2023-05-11T05:10:15.226Z,41.88
2023-05-11T05:12:43.073Z,42.11
2023-05-11T05:15:11.705Z,41.38
2023-05-11T05:17:39.768Z,41.08
2023-05-11T05:20:08.465Z,40.88
2023-05-11T05:22:36.450Z,40.13
2023-05-11T05:25:04.601Z,39.95
2023-05-11T05:27:34.894Z,40.48
2023-05-11T05:30:06.274Z,40.55
2023-05-11T05:32:35.007Z,40.84
2023-05-11T05:35:03.516Z,40.88
2023-05-11T05:37:33.008Z,41.37
2023-05-11T05:40:01.389Z,40.92
2023-05-11T05:42:32.534Z,40.98
2023-05-11T05:45:00.541Z,39.66
2023-05-11T05:47:33.641Z,39.22
2023-05-11T05:50:02.302Z,39.59
2023-05-11T05:52:32.862Z,38.21
2023-05-11T05:55:00.924Z,38.07
2023-05-11T05:57:32.726Z,37.38
2023-05-11T06:00:00.746Z,37.47
2023-05-11T06:02:31.836Z,37.06
2023-05-11T06:05:00.009Z,37.16
2023-05-11T06:07:28.324Z,37.84
2023-05-11T06:09:56.203Z,37.27
2023-05-11T06:12:24.037Z,36.84
2023-05-11T06:14:53.836Z,36.09
2023-05-11T06:17:21.749Z,35.73
2023-05-11T06:19:50.483Z,36.36
2023-05-11T06:22:23.229Z,35.58
2023-05-11T06:24:51.977Z,35.71
2023-05-11T06:27:20.959Z,35.17
2023-05-11T06:29:50.641Z,35.31
2023-05-11T06:32:18.717Z,34.87
2023-05-11T06:34:47.242Z,34.81
2023-05-11T06:37:21.247Z,33.92
2023-05-11T06:39:51.551Z,33.64
2023-05-11T06:42:19.356Z,32.20
2023-05-11T06:44:47.589Z,32.78
2023-05-11T06:47:15.868Z,32.04
2023-05-11T06:49:43.713Z,31.94
2023-05-11T06:52:11.577Z,32.82
2023-05-11T06:54:39.423Z,31.44
2023-05-11T06:57:07.901Z,30.93
2023-05-11T06:59:35.858Z,31.31
2023-05-11T07:02:03.722Z,30.34
2023-05-11T07:04:31.512Z,29.99
2023-05-11T07:06:59.376Z,29.99
2023-05-11T07:09:27.272Z,29.97
2023-05-11T07:11:55.044Z,29.58
2023-05-11T07:14:22.877Z,29.38
2023-05-11T07:16:53.132Z,27.39
2023-05-11T07:19:21.080Z,27.18
2023-05-11T07:21:48.972Z,27.35
2023-05-11T07:24:16.848Z,25.71
2023-05-11T07:26:44.830Z,26.49
2023-05-11T07:29:12.646Z,26.36
2023-05-11T07:31:40.491Z,26.95
2023-05-11T07:34:08.668Z,27.45
2023-05-11T07:36:36.564Z,27.65
2023-05-11T07:39:04.388Z,28.22
2023-05-11T07:41:32.196Z,27.86
2023-05-11T07:44:03.151Z,28.00
2023-05-11T07:46:31.125Z,28.30
2023-05-11T07:49:23.000Z,28.23
2023-05-11T07:51:59.576Z,26.37
2023-05-11T07:54:28.714Z,26.91
2023-05-11T07:56:59.132Z,26.19
2023-05-11T07:59:26.930Z,26.00
2023-05-11T08:01:54.815Z,26.51
2023-05-11T08:04:23.811Z,26.17
2023-05-11T08:06:52.026Z,26.24
2023-05-11T08:09:19.817Z,25.25
2023-05-11T08:11:47.832Z,24.92
2023-05-11T08:14:16.020Z,24.36
2023-05-11T08:16:44.059Z,24.73
2023-05-11T08:19:13.189Z,25.10
2023-05-11T08:21:41.124Z,25.53
2023-05-11T08:24:08.931Z,26.02
2023-05-11T08:26:36.916Z,26.13
2023-05-11T08:29:04.748Z,26.81
2023-05-11T08:31:32.642Z,26.90
2023-05-11T08:34:00.889Z,26.83
2023-05-11T08:36:28.826Z,26.32
2023-05-11T08:38:58.921Z,26.34
2023-05-11T08:41:27.148Z,27.06
2023-05-11T08:43:55.917Z,27.74
2023-05-11T08:46:27.213Z,29.02
2023-05-11T08:48:58.562Z,28.31
2023-05-11T08:51:28.434Z,28.36
2023-05-11T08:53:57.932Z,28.80
2023-05-11T08:56:27.869Z,28.67
2023-05-11T08:58:58.981Z,27.27
2023-05-11T09:01:29.155Z,27.23
2023-05-11T09:03:58.379Z,28.10
2023-05-11T09:06:27.120Z,28.97
2023-05-11T09:08:55.244Z,28.65
2023-05-11T09:11:23.108Z,28.37
2023-05-11T09:13:51.666Z,28.34
2023-05-11T09:16:35.599Z,28.99
2023-05-11T09:19:05.585Z,29.29
2023-05-11T09:21:34.422Z,30.22
2023-05-11T09:24:02.879Z,30.17
2023-05-11T09:26:33.857Z,30.27
2023-05-11T09:29:03.414Z,29.53
2023-05-11T09:31:44.845Z,30.09
2023-05-11T09:34:21.072Z,31.65
2023-05-11T09:36:51.718Z,30.88
2023-05-11T09:42:13.641Z,30.17
2023-05-11T09:44:44.523Z,30.73
2023-05-11T09:47:19.862Z,31.51
2023-05-11T09:49:48.112Z,31.40
2023-05-11T09:52:18.327Z,32.04
2023-05-11T09:54:50.607Z,32.38
2023-05-11T09:57:29.688Z,32.71
2023-05-11T09:59:59.507Z,31.95
2023-05-11T10:02:31.669Z,31.96
2023-05-11T10:05:01.466Z,31.78
2023-05-11T10:07:36.563Z,31.60
2023-05-11T10:10:06.460Z,32.11
2023-05-11T10:12:38.463Z,32.72
2023-05-11T10:15:08.959Z,31.53
2023-05-11T10:17:44.837Z,31.32
2023-05-11T10:20:13.237Z,30.21
2023-05-11T10:22:41.323Z,29.38
2023-05-11T10:25:10.233Z,29.78
2023-05-11T10:27:38.514Z,30.01
2023-05-11T10:30:08.788Z,29.63
2023-05-11T10:32:40.307Z,29.45
2023-05-11T10:35:09.475Z,30.15
2023-05-11T10:37:37.793Z,31.01
2023-05-11T10:40:06.623Z,33.07
2023-05-11T10:42:52.581Z,35.09
2023-05-11T10:45:25.112Z,35.96
2023-05-11T10:48:06.422Z,36.65
2023-05-11T10:51:05.732Z,38.10
2023-05-11T10:53:51.505Z,39.15
2023-05-11T10:56:35.411Z,41.51
2023-05-11T10:59:22.724Z,41.61
2023-05-11T11:01:55.189Z,41.63
2023-05-11T11:04:23.690Z,44.24
2023-05-11T11:07:07.147Z,46.41
2023-05-11T11:09:52.710Z,44.90
2023-05-11T11:12:21.612Z,43.78
2023-05-11T11:15:06.598Z,42.19
2023-05-11T11:17:37.123Z,41.55
2023-05-11T11:20:09.238Z,41.69
2023-05-11T11:22:41.653Z,42.74
2023-05-11T11:25:10.396Z,41.85
2023-05-11T11:27:41.340Z,43.00
2023-05-11T11:30:26.815Z,42.92
2023-05-11T11:33:14.938Z,42.63
2023-05-11T11:35:43.028Z,42.67
2023-05-11T11:38:12.859Z,42.70
2023-05-11T11:40:50.679Z,42.94
2023-05-11T11:43:25.182Z,42.32
2023-05-11T11:45:53.357Z,41.61
2023-05-11T11:48:42.618Z,41.20
2023-05-11T11:51:11.868Z,41.11
2023-05-11T11:53:41.097Z,41.46
2023-05-11T11:56:28.929Z,40.47
2023-05-11T11:59:01.032Z,40.94
2023-05-11T12:01:35.158Z,40.84
2023-05-11T12:04:06.060Z,40.49
2023-05-11T12:06:40.621Z,41.11
2023-05-11T12:09:08.621Z,41.05
2023-05-11T12:11:37.856Z,41.11
2023-05-11T12:14:06.623Z,41.13
2023-05-11T12:16:34.390Z,41.52
2023-05-11T12:19:03.025Z,39.79
2023-05-11T12:21:32.409Z,40.20
2023-05-11T12:24:05.196Z,40.60
2023-05-11T12:26:34.530Z,40.67
2023-05-11T12:29:10.989Z,42.00
2023-05-11T12:31:39.958Z,41.99
2023-05-11T12:34:14.969Z,41.07
2023-05-11T12:36:44.188Z,41.19
2023-05-11T12:39:22.441Z,41.42
2023-05-11T12:41:51.686Z,41.72
2023-05-11T12:44:21.035Z,41.60
2023-05-11T12:46:50.149Z,40.68
2023-05-11T12:49:26.220Z,40.15
2023-05-11T12:52:09.584Z,39.31
2023-05-11T12:54:41.912Z,39.68
2023-05-11T12:57:26.578Z,39.27
2023-05-11T13:00:14.886Z,38.74
2023-05-11T13:02:52.318Z,38.72
2023-05-11T13:05:30.016Z,39.45
2023-05-11T13:08:04.966Z,39.80
2023-05-11T13:10:32.817Z,38.39
2023-05-11T13:13:00.602Z,38.62
2023-05-11T13:15:28.839Z,39.56
2023-05-11T13:17:59.918Z,39.08
2023-05-11T13:20:31.723Z,39.03
2023-05-11T13:23:22.167Z,38.49
2023-05-11T13:25:54.201Z,38.49
2023-05-11T13:28:24.420Z,37.14
2023-05-11T13:31:00.425Z,37.87
2023-05-11T13:33:28.435Z,38.00
2023-05-11T13:35:56.250Z,37.77
2023-05-11T13:38:24.039Z,37.74
2023-05-11T13:40:51.961Z,38.28
2023-05-11T13:43:19.703Z,38.24
2023-05-11T13:45:47.458Z,38.61
2023-05-11T13:48:15.298Z,39.14
2023-05-11T13:50:43.128Z,38.88
2023-05-11T13:53:12.976Z,38.89
2023-05-11T13:55:44.571Z,39.03
2023-05-11T13:58:12.434Z,39.18
2023-05-11T14:00:40.452Z,39.13
2023-05-11T14:03:08.397Z,38.67
2023-05-11T14:05:38.526Z,38.89
2023-05-11T14:08:07.221Z,38.64
2023-05-11T14:10:35.064Z,38.85
2023-05-11T14:13:02.970Z,38.78
2023-05-11T14:15:30.710Z,38.90
2023-05-11T14:17:58.676Z,38.91
2023-05-11T14:20:26.881Z,39.11
2023-05-11T14:22:54.860Z,38.85
2023-05-11T14:25:22.747Z,38.85
2023-05-11T14:27:54.505Z,38.37
2023-05-11T14:30:22.363Z,38.71
2023-05-11T14:32:52.727Z,38.59
2023-05-11T14:35:21.400Z,39.22
2023-05-11T14:37:49.414Z,38.56
2023-05-11T14:40:17.187Z,38.37
2023-05-11T14:42:45.039Z,39.32
2023-05-11T14:45:12.907Z,38.84
2023-05-11T14:47:41.008Z,38.60
2023-05-11T14:50:09.728Z,38.70
2023-05-11T14:52:41.035Z,38.37
2023-05-11T14:55:09.193Z,38.08
2023-05-11T14:57:37.003Z,38.26
2023-05-11T15:00:05.366Z,38.64
2023-05-11T15:02:36.826Z,38.70
2023-05-11T15:05:06.317Z,38.79
2023-05-11T15:07:34.460Z,39.47
2023-05-11T15:10:02.563Z,39.68
2023-05-11T15:12:32.664Z,39.82
2023-05-11T15:15:00.875Z,40.32
2023-05-11T15:17:31.224Z,40.19
2023-05-11T15:19:59.066Z,40.44
2023-05-11T15:22:26.887Z,40.60
2023-05-11T15:24:54.675Z,40.85
2023-05-11T15:27:22.533Z,40.99
2023-05-11T15:29:50.461Z,40.97
2023-05-11T15:32:18.338Z,40.95
2023-05-11T15:34:58.437Z,41.17
2023-05-11T15:37:28.608Z,41.74
2023-05-11T15:39:56.594Z,42.16
2023-05-11T15:42:24.582Z,42.21
2023-05-11T15:44:52.514Z,42.07
2023-05-11T15:47:20.690Z,42.82
2023-05-11T15:49:48.488Z,43.10
2023-05-11T15:52:16.412Z,43.44
2023-05-11T15:54:44.159Z,43.87
2023-05-11T15:57:12.228Z,44.10
2023-05-11T15:59:40.040Z,44.01
2023-05-11T16:02:07.921Z,44.32
2023-05-11T16:04:35.926Z,44.92
2023-05-11T16:07:04.573Z,44.56
2023-05-11T16:09:34.940Z,45.05
2023-05-11T16:12:03.232Z,45.31
2023-05-11T16:14:31.107Z,45.50
2023-05-11T16:17:01.146Z,45.82
2023-05-11T16:19:30.246Z,45.46
2023-05-11T16:21:58.026Z,45.19
2023-05-11T16:24:25.932Z,45.07
2023-05-11T16:26:53.836Z,45.34
2023-05-11T16:29:21.692Z,44.76
2023-05-11T16:31:49.491Z,44.88
2023-05-11T16:34:18.180Z,44.00
2023-05-11T16:36:46.250Z,46.62
2023-05-11T16:39:13.984Z,47.18
2023-05-11T16:41:41.870Z,47.96
2023-05-11T16:44:09.668Z,48.73
2023-05-11T16:46:37.592Z,49.33
2023-05-11T16:49:05.565Z,49.53
2023-05-11T16:51:34.312Z,49.75
2023-05-11T16:54:02.130Z,49.84
2023-05-11T16:56:29.920Z,50.26
2023-05-11T16:58:57.980Z,50.38
2023-05-11T17:01:26.055Z,50.46
2023-05-11T17:03:54.579Z,50.01
2023-05-11T17:06:24.068Z,49.57
2023-05-11T17:08:53.084Z,50.36
2023-05-11T17:11:21.762Z,50.77
2023-05-11T17:13:49.667Z,51.41
2023-05-11T17:16:17.729Z,51.85
2023-05-11T17:18:46.589Z,52.15
2023-05-11T17:21:14.449Z,52.41
2023-05-11T17:23:43.614Z,52.82
2023-05-11T17:26:14.833Z,53.62
2023-05-11T17:28:42.726Z,53.81
2023-05-11T17:31:12.208Z,54.10
2023-05-11T17:33:41.746Z,54.73
2023-05-11T17:36:09.982Z,55.44
2023-05-11T17:38:38.649Z,56.36
2023-05-11T17:41:06.484Z,57.37
2023-05-11T17:43:35.604Z,58.14
2023-05-11T17:46:06.848Z,58.48
2023-05-11T17:48:34.753Z,59.44
2023-05-11T17:51:02.677Z,59.56
2023-05-11T17:53:30.871Z,59.88
2023-05-11T17:55:59.949Z,60.69
2023-05-11T17:58:27.843Z,61.52
2023-05-11T18:00:55.625Z,61.84
2023-05-11T18:03:23.589Z,62.13
2023-05-11T18:05:51.510Z,62.63
2023-05-11T18:08:19.257Z,63.02
2023-05-11T18:10:47.188Z,63.10
2023-05-11T18:13:17.297Z,63.56
2023-05-11T18:15:45.700Z,63.99
2023-05-11T18:18:14.041Z,63.48
2023-05-11T18:20:45.550Z,64.04
2023-05-11T18:23:14.244Z,64.08
2023-05-11T18:25:42.488Z,64.41
2023-05-11T18:28:10.318Z,64.75
2023-05-11T18:30:39.089Z,64.73
2023-05-11T18:33:06.954Z,64.87
2023-05-11T18:35:34.834Z,64.20
2023-05-11T18:38:04.989Z,64.76
2023-05-11T18:40:32.996Z,64.74
2023-05-11T18:43:01.715Z,64.22
2023-05-11T18:45:30.722Z,64.71
2023-05-11T18:47:58.885Z,64.31
2023-05-11T18:50:29.810Z,64.81
2023-05-11T18:52:57.811Z,64.76
2023-05-11T18:55:38.142Z,64.17
2023-05-11T18:58:13.246Z,64.20
2023-05-11T19:00:41.251Z,64.40
2023-05-11T19:03:09.834Z,65.02
2023-05-11T19:05:37.983Z,64.61
2023-05-11T19:08:06.812Z,64.59
2023-05-11T19:10:38.091Z,64.49
2023-05-11T19:13:07.241Z,64.73
2023-05-11T19:15:35.250Z,64.94
2023-05-11T19:18:03.372Z,65.12
2023-05-11T19:20:31.737Z,64.72
2023-05-11T19:23:00.687Z,64.57
2023-05-11T19:25:28.672Z,64.50
2023-05-11T19:28:00.013Z,64.59
2023-05-11T19:30:34.486Z,64.84
2023-05-11T19:33:02.501Z,64.87
2023-05-11T19:35:30.806Z,64.90
2023-05-11T19:37:59.024Z,64.29
2023-05-11T19:43:01.246Z,63.98
2023-05-11T19:45:32.920Z,64.42
2023-05-11T19:48:00.863Z,64.16
2023-05-11T19:50:28.989Z,63.56
2023-05-11T19:52:57.161Z,63.75
2023-05-11T19:55:25.135Z,63.25
2023-05-11T19:57:53.085Z,63.93
2023-05-11T20:00:25.198Z,63.97
2023-05-11T20:02:53.978Z,62.89
2023-05-11T20:05:24.715Z,62.83
2023-05-11T20:07:53.899Z,63.20
2023-05-11T20:10:21.990Z,62.64
2023-05-11T20:12:51.318Z,62.92
2023-05-11T20:15:19.653Z,63.12
2023-05-11T20:17:47.585Z,63.24
2023-05-11T20:20:15.505Z,62.95
2023-05-11T20:22:43.276Z,63.46
2023-05-11T20:25:17.993Z,62.85
2023-05-11T20:27:49.269Z,62.72
2023-05-11T20:30:19.936Z,63.28
2023-05-11T20:35:21.139Z,63.38
2023-05-11T20:37:49.129Z,63.18
2023-05-11T20:40:17.491Z,62.62
2023-05-11T20:42:48.141Z,63.18
2023-05-11T20:45:16.274Z,63.02
2023-05-11T20:47:44.365Z,62.59
2023-05-11T20:50:14.424Z,62.57
2023-05-11T20:52:51.104Z,62.44
2023-05-11T20:55:20.604Z,62.09
2023-05-11T20:57:56.014Z,62.72
2023-05-11T21:00:26.049Z,62.07
2023-05-11T21:02:56.774Z,62.35
2023-05-11T21:05:27.575Z,62.64
2023-05-11T21:07:56.011Z,62.83
2023-05-11T21:10:24.569Z,62.70
2023-05-11T21:12:53.105Z,62.11
2023-05-11T21:15:21.149Z,62.64
2023-05-11T21:17:49.197Z,62.92
2023-05-11T21:20:20.157Z,62.81
2023-05-11T21:22:48.259Z,62.64
2023-05-11T21:25:25.857Z,62.85
2023-05-11T21:27:53.857Z,62.90
2023-05-11T21:30:21.709Z,62.79
2023-05-11T21:32:50.876Z,63.07
2023-05-11T21:35:18.850Z,62.82
2023-05-11T21:37:49.693Z,62.82
2023-05-11T21:40:18.324Z,62.45
2023-05-11T21:42:48.911Z,62.19
2023-05-11T21:45:16.916Z,62.02
2023-05-11T21:47:44.811Z,61.76
2023-05-11T21:50:12.924Z,62.09
2023-05-11T21:52:40.759Z,62.06
2023-05-11T21:55:09.184Z,61.46
2023-05-11T21:57:37.419Z,61.40
2023-05-11T22:00:08.397Z,61.50
2023-05-11T22:02:38.312Z,60.89
2023-05-11T22:05:09.489Z,61.74
2023-05-11T22:07:37.484Z,61.42
2023-05-11T22:10:08.155Z,61.22
2023-05-11T22:12:37.075Z,61.42
2023-05-11T22:15:08.442Z,61.19
2023-05-11T22:17:37.087Z,61.66
2023-05-11T22:20:06.606Z,61.67
2023-05-11T22:22:35.097Z,61.83
2023-05-11T22:25:03.523Z,61.95
2023-05-11T22:27:32.533Z,61.91
2023-05-11T22:30:00.449Z,61.95
2023-05-11T22:32:28.691Z,62.04
2023-05-11T22:34:58.573Z,62.04
2023-05-11T22:37:27.400Z,62.03
2023-05-11T22:39:55.346Z,61.95
2023-05-11T22:42:23.442Z,61.85
2023-05-11T22:44:51.460Z,61.90
2023-05-11T22:47:19.340Z,61.77
2023-05-11T22:49:47.520Z,61.79
2023-05-11T22:52:15.356Z,62.20
2023-05-11T22:54:43.213Z,61.45
2023-05-11T22:57:13.599Z,61.54
2023-05-11T22:59:41.512Z,62.00
2023-05-11T23:02:09.416Z,62.01
2023-05-11T23:04:37.198Z,61.66
2023-05-11T23:07:07.932Z,61.33
2023-05-11T23:09:35.761Z,61.64
2023-05-11T23:12:03.780Z,61.04
2023-05-11T23:14:31.773Z,60.32
2023-05-11T23:16:59.625Z,60.30
2023-05-11T23:19:27.502Z,60.21
2023-05-11T23:21:55.502Z,59.45
2023-05-11T23:24:23.315Z,59.98
2023-05-11T23:26:51.052Z,59.13
2023-05-11T23:29:18.868Z,59.44
2023-05-11T23:31:46.789Z,59.19
2023-05-11T23:34:15.017Z,59.47
2023-05-11T23:36:42.912Z,59.80
2023-05-11T23:39:10.857Z,59.76
2023-05-11T23:41:38.673Z,59.93
2023-05-11T23:44:06.841Z,59.31
2023-05-11T23:46:34.638Z,60.43
2023-05-11T23:49:02.397Z,60.51
2023-05-11T23:51:30.229Z,59.68
2023-05-11T23:53:58.072Z,60.49
2023-05-11T23:56:25.998Z,61.15
2023-05-11T23:58:54.472Z,60.58
